createdAt,value
2018-06-04T00:01:28.364Z,3.43
2018-06-04T00:03:57.413Z,3.60
2018-06-04T00:06:26.672Z,3.60
2018-06-04T00:08:55.866Z,4.07
2018-06-04T00:11:24.841Z,3.83
2018-06-04T00:13:54.104Z,3.90
2018-06-04T00:16:23.332Z,4.07
2018-06-04T00:18:52.570Z,3.67
2018-06-04T00:21:21.962Z,3.80
2018-06-04T00:23:50.552Z,3.63
2018-06-04T00:26:19.056Z,4.43
2018-06-04T00:28:48.309Z,3.73
2018-06-04T00:31:16.802Z,3.33
2018-06-04T00:33:45.305Z,4.77
2018-06-04T00:36:14.590Z,3.83
2018-06-04T00:38:43.903Z,3.47
2018-06-04T00:41:13.059Z,3.37
2018-06-04T00:43:42.048Z,3.37
2018-06-04T00:46:11.314Z,3.27
2018-06-04T00:48:40.527Z,3.30
2018-06-04T00:51:09.748Z,3.40
2018-06-04T00:53:38.953Z,3.37
2018-06-04T00:56:13.129Z,3.60
2018-06-04T00:58:42.375Z,3.70
2018-06-04T01:01:11.595Z,3.30
2018-06-04T01:03:40.815Z,3.70
2018-06-04T01:06:10.022Z,3.90
2018-06-04T01:08:38.559Z,4.37
2018-06-04T01:11:07.901Z,5.77
2018-06-04T01:13:36.418Z,5.43
2018-06-04T01:16:05.383Z,5.37
2018-06-04T01:18:34.349Z,4.73
2018-06-04T01:21:03.729Z,5.17
2018-06-04T01:23:33.057Z,5.07
2018-06-04T01:26:02.072Z,4.17
2018-06-04T01:28:31.284Z,4.13
2018-06-04T01:31:00.533Z,3.93
2018-06-04T01:33:29.539Z,4.03
2018-06-04T01:35:58.772Z,3.60
2018-06-04T01:38:28.008Z,3.40
2018-06-04T01:40:56.997Z,4.00
2018-06-04T01:43:26.082Z,3.70
2018-06-04T01:45:55.291Z,3.40
2018-06-04T01:48:24.509Z,3.70
2018-06-04T01:50:53.733Z,3.63
2018-06-04T01:53:22.990Z,3.70
2018-06-04T01:55:52.192Z,3.70
2018-06-04T01:58:21.410Z,3.73
2018-06-04T02:00:50.633Z,3.60
2018-06-04T02:03:19.871Z,3.27
2018-06-04T02:05:49.086Z,3.60
2018-06-04T02:08:17.598Z,4.27
2018-06-04T02:10:46.781Z,4.67
2018-06-04T02:13:16.162Z,5.40
2018-06-04T02:15:45.465Z,5.23
2018-06-04T02:18:14.630Z,5.30
2018-06-04T02:20:43.639Z,5.67
2018-06-04T02:23:12.136Z,4.70
2018-06-04T02:25:41.344Z,5.00
2018-06-04T02:28:10.366Z,5.50
2018-06-04T02:30:39.580Z,5.40
2018-06-04T02:33:08.628Z,4.93
2018-06-04T02:35:37.615Z,5.30
2018-06-04T02:38:07.005Z,4.57
2018-06-04T02:40:35.525Z,5.10
2018-06-04T02:43:04.035Z,4.90
2018-06-04T02:45:32.534Z,4.77
2018-06-04T02:48:01.184Z,4.93
2018-06-04T02:50:29.692Z,4.93
2018-06-04T02:52:58.185Z,5.13
2018-06-04T02:55:27.333Z,4.83
2018-06-04T02:57:56.569Z,5.43
2018-06-04T03:00:25.786Z,5.70
2018-06-04T03:02:55.038Z,5.70
2018-06-04T03:05:24.259Z,5.77
2018-06-04T03:07:53.483Z,6.30
2018-06-04T03:10:22.696Z,6.40
2018-06-04T03:12:51.947Z,6.53
2018-06-04T03:15:21.140Z,6.73
2018-06-04T03:17:50.180Z,7.40
2018-06-04T03:20:19.726Z,7.43
2018-06-04T03:22:49.021Z,7.40
2018-06-04T03:25:18.008Z,7.57
2018-06-04T03:27:47.448Z,7.70
2018-06-04T03:30:15.958Z,7.40
2018-06-04T03:32:44.491Z,7.27
2018-06-04T03:35:12.975Z,7.07
2018-06-04T03:37:41.535Z,7.30
2018-06-04T03:40:10.029Z,8.00
2018-06-04T03:42:39.066Z,7.33
2018-06-04T03:45:08.494Z,7.40
2018-06-04T03:47:37.732Z,7.73
2018-06-04T03:50:07.388Z,7.60
2018-06-04T03:52:36.731Z,7.63
2018-06-04T03:55:05.242Z,8.17
2018-06-04T03:57:33.757Z,7.97
2018-06-04T04:00:02.279Z,8.20
2018-06-04T04:02:30.964Z,8.90
2018-06-04T04:04:59.465Z,9.00
2018-06-04T04:07:27.968Z,8.80
2018-06-04T04:09:56.458Z,9.87
2018-06-04T04:12:24.969Z,9.20
2018-06-04T04:14:53.502Z,9.23
2018-06-04T04:17:22.041Z,10.00
2018-06-04T04:19:52.171Z,9.43
2018-06-04T04:22:21.525Z,10.30
2018-06-04T04:24:50.095Z,10.07
2018-06-04T04:27:18.604Z,9.73
2018-06-04T04:29:47.113Z,10.03
2018-06-04T04:32:15.634Z,9.70
2018-06-04T04:34:44.177Z,11.00
2018-06-04T04:37:13.186Z,10.07
2018-06-04T04:39:42.233Z,9.43
2018-06-04T04:42:11.473Z,9.03
2018-06-04T04:44:40.714Z,8.53
2018-06-04T04:47:09.228Z,8.50
2018-06-04T04:49:37.732Z,7.57
2018-06-04T04:52:06.267Z,8.10
2018-06-04T04:54:34.779Z,8.47
2018-06-04T04:57:03.474Z,8.03
2018-06-04T04:59:32.033Z,7.13
2018-06-04T05:02:00.539Z,7.70
2018-06-04T05:04:29.049Z,6.97
2018-06-04T05:06:57.556Z,6.57
2018-06-04T05:09:26.068Z,7.83
2018-06-04T05:11:54.685Z,6.93
2018-06-04T05:14:23.251Z,7.40
2018-06-04T05:16:51.785Z,6.87
2018-06-04T05:19:20.614Z,6.73
2018-06-04T05:21:49.148Z,5.90
2018-06-04T05:24:17.644Z,5.93
2018-06-04T05:26:46.159Z,6.00
2018-06-04T05:29:16.613Z,5.43
2018-06-04T05:31:45.591Z,5.20
2018-06-04T05:34:14.828Z,4.87
2018-06-04T05:36:44.056Z,5.70
2018-06-04T05:39:13.490Z,6.00
2018-06-04T05:41:42.693Z,5.67
2018-06-04T05:44:11.929Z,5.57
2018-06-04T05:46:40.923Z,6.33
2018-06-04T05:49:09.943Z,7.00
2018-06-04T05:51:39.188Z,6.60
2018-06-04T05:54:07.690Z,7.27
2018-06-04T05:56:36.597Z,7.40
2018-06-04T05:59:05.163Z,8.00
2018-06-04T06:01:33.757Z,8.63
2018-06-04T06:04:02.263Z,9.37
2018-06-04T06:06:30.773Z,10.17
2018-06-04T06:08:59.309Z,10.07
2018-06-04T06:11:27.922Z,9.20
2018-06-04T06:13:56.435Z,11.20
2018-06-04T06:16:25.585Z,11.33
2018-06-04T06:18:54.821Z,11.93
2018-06-04T06:21:24.024Z,12.47
2018-06-04T06:23:53.249Z,10.30
2018-06-04T06:26:22.266Z,10.43
2018-06-04T06:28:51.512Z,11.13
2018-06-04T06:31:20.505Z,11.80
2018-06-04T06:33:49.580Z,11.40
2018-06-04T06:36:18.602Z,10.47
2018-06-04T06:38:47.824Z,12.13
2018-06-04T06:41:17.250Z,11.73
2018-06-04T06:43:46.488Z,11.70
2018-06-04T06:46:15.702Z,11.07
2018-06-04T06:48:44.234Z,11.10
2018-06-04T06:51:13.376Z,11.60
2018-06-04T06:53:42.555Z,12.07
2018-06-04T06:56:11.822Z,10.50
2018-06-04T06:58:41.044Z,10.73
2018-06-04T07:01:10.046Z,11.30
2018-06-04T07:03:39.080Z,10.57
2018-06-04T07:06:08.141Z,9.93
2018-06-04T07:08:37.360Z,10.23
2018-06-04T07:11:06.387Z,8.87
2018-06-04T07:13:35.417Z,9.43
2018-06-04T07:16:04.636Z,8.57
2018-06-04T07:18:33.144Z,9.00
2018-06-04T07:21:02.314Z,8.80
2018-06-04T07:23:31.304Z,8.23
2018-06-04T07:26:00.735Z,7.73
2018-06-04T07:28:29.994Z,9.37
2018-06-04T07:30:59.204Z,8.37
2018-06-04T07:33:28.217Z,8.77
2018-06-04T07:36:01.066Z,8.27
2018-06-04T07:38:29.676Z,8.10
2018-06-04T07:40:58.920Z,9.20
2018-06-04T07:43:28.108Z,9.23
2018-06-04T07:45:57.352Z,11.17
2018-06-04T07:48:26.578Z,10.30
2018-06-04T07:50:55.785Z,10.63
2018-06-04T07:53:25.002Z,10.07
2018-06-04T07:55:54.220Z,9.63
2018-06-04T07:58:23.481Z,10.33
2018-06-04T08:00:52.741Z,9.47
2018-06-04T08:03:21.906Z,8.60
2018-06-04T08:05:50.522Z,8.40
2018-06-04T08:08:19.778Z,8.63
2018-06-04T08:10:49.022Z,8.77
2018-06-04T08:13:18.230Z,10.50
2018-06-04T08:15:47.260Z,11.37
2018-06-04T08:18:16.500Z,9.90
2018-06-04T08:20:45.729Z,8.97
2018-06-04T08:23:14.945Z,9.10
2018-06-04T08:25:43.457Z,9.43
2018-06-04T08:28:12.599Z,9.53
2018-06-04T08:30:41.817Z,8.90
2018-06-04T08:33:10.845Z,8.63
2018-06-04T08:35:39.845Z,8.70
2018-06-04T08:38:08.366Z,8.07
2018-06-04T08:40:37.316Z,8.60
2018-06-04T08:43:06.607Z,7.80
2018-06-04T08:45:35.674Z,7.37
2018-06-04T08:48:04.833Z,7.57
2018-06-04T08:50:34.067Z,7.20
2018-06-04T08:53:03.061Z,7.23
2018-06-04T08:55:32.348Z,6.80
2018-06-04T08:58:01.565Z,6.87
2018-06-04T09:00:30.769Z,7.80
2018-06-04T09:02:59.756Z,6.50
2018-06-04T09:05:28.994Z,5.80
2018-06-04T09:07:57.545Z,6.10
2018-06-04T09:10:26.477Z,6.07
2018-06-04T09:12:55.510Z,6.20
2018-06-04T09:15:24.060Z,6.27
2018-06-04T09:17:52.614Z,6.70
2018-06-04T09:20:21.122Z,6.97
2018-06-04T09:22:49.620Z,5.87
2018-06-04T09:25:18.122Z,5.67
2018-06-04T09:27:46.773Z,6.13
2018-06-04T09:30:15.346Z,6.40
2018-06-04T09:32:44.617Z,6.43
2018-06-04T09:35:13.118Z,6.10
2018-06-04T09:37:41.757Z,5.27
2018-06-04T09:40:10.245Z,5.53
2018-06-04T09:42:38.780Z,4.73
2018-06-04T09:45:07.313Z,5.30
2018-06-04T09:47:35.917Z,5.20
2018-06-04T09:50:04.511Z,4.83
2018-06-04T09:52:33.082Z,4.50
2018-06-04T09:55:01.573Z,5.40
2018-06-04T09:57:30.093Z,4.23
2018-06-04T09:59:58.618Z,4.10
2018-06-04T10:02:27.201Z,3.90
2018-06-04T10:04:55.712Z,4.27
2018-06-04T10:07:24.192Z,4.30
2018-06-04T10:09:52.700Z,4.40
2018-06-04T10:12:21.204Z,3.80
2018-06-04T10:14:49.705Z,3.53
2018-06-04T10:17:18.315Z,3.43
2018-06-04T10:19:47.354Z,3.20
2018-06-04T10:22:15.857Z,4.10
2018-06-04T10:24:44.345Z,4.03
2018-06-04T10:27:12.862Z,3.77
2018-06-04T10:29:41.565Z,3.97
2018-06-04T10:32:10.077Z,3.87
2018-06-04T10:34:38.588Z,4.33
2018-06-04T10:37:07.082Z,3.90
2018-06-04T10:39:35.584Z,4.27
2018-06-04T10:42:04.090Z,3.77
2018-06-04T10:44:32.604Z,5.03
2018-06-04T10:47:01.223Z,4.57
2018-06-04T10:49:30.303Z,4.30
2018-06-04T10:51:58.899Z,4.13
2018-06-04T10:54:27.423Z,5.00
2018-06-04T10:56:56.326Z,4.27
2018-06-04T10:59:25.559Z,4.20
2018-06-04T11:01:54.912Z,4.20
2018-06-04T11:04:23.397Z,4.03
2018-06-04T11:06:51.894Z,4.50
2018-06-04T11:09:20.384Z,3.90
2018-06-04T11:11:49.658Z,4.40
2018-06-04T11:14:18.174Z,5.17
2018-06-04T11:16:47.697Z,4.17
2018-06-04T11:19:16.874Z,4.40
2018-06-04T11:21:45.438Z,4.30
2018-06-04T11:24:14.480Z,4.10
2018-06-04T11:26:42.997Z,4.50
2018-06-04T11:29:11.812Z,3.77
2018-06-04T11:31:40.506Z,4.93
2018-06-04T11:34:10.267Z,6.10
2018-06-04T11:36:39.357Z,4.27
2018-06-04T11:39:08.417Z,3.57
2018-06-04T11:41:36.928Z,3.80
2018-06-04T11:44:07.031Z,3.20
2018-06-04T11:46:36.579Z,3.57
2018-06-04T11:49:05.106Z,2.83
2018-06-04T11:51:34.592Z,2.63
2018-06-04T11:54:03.562Z,3.57
2018-06-04T11:56:32.594Z,2.77
2018-06-04T11:59:02.042Z,2.90
2018-06-04T12:01:30.610Z,3.00
2018-06-04T12:03:59.121Z,2.77
2018-06-04T12:06:27.639Z,2.70
2018-06-04T12:08:56.206Z,3.60
2018-06-04T12:11:24.803Z,3.23
2018-06-04T12:13:53.305Z,2.90
2018-06-04T12:16:21.830Z,3.30
2018-06-04T12:18:50.324Z,3.80
2018-06-04T12:21:18.872Z,2.97
2018-06-04T12:23:47.344Z,2.83
2018-06-04T12:26:15.948Z,2.83
2018-06-04T12:28:44.504Z,3.10
2018-06-04T12:31:13.000Z,3.07
2018-06-04T12:33:41.614Z,2.53
2018-06-04T12:36:10.177Z,3.03
2018-06-04T12:38:38.793Z,3.20
2018-06-04T12:41:07.305Z,3.47
2018-06-04T12:43:35.802Z,4.40
2018-06-04T12:46:04.321Z,3.47
2018-06-04T12:48:32.832Z,3.27
2018-06-04T12:51:01.327Z,3.10
2018-06-04T12:53:29.828Z,3.60
2018-06-04T12:55:58.305Z,3.57
2018-06-04T12:58:26.841Z,3.33
2018-06-04T13:00:55.376Z,3.50
2018-06-04T13:03:23.917Z,3.57
2018-06-04T13:05:52.646Z,2.93
2018-06-04T13:08:21.145Z,3.10
2018-06-04T13:10:49.647Z,3.40
2018-06-04T13:13:18.186Z,3.30
2018-06-04T13:15:46.761Z,3.37
2018-06-04T13:18:15.280Z,3.70
2018-06-04T13:20:43.808Z,3.30
2018-06-04T13:23:12.352Z,3.70
2018-06-04T13:25:40.934Z,3.10
2018-06-04T13:28:09.458Z,3.80
2018-06-04T13:30:37.991Z,2.73
2018-06-04T13:33:06.658Z,3.33
2018-06-04T13:35:35.208Z,2.80
2018-06-04T13:38:03.884Z,2.83
2018-06-04T13:40:32.388Z,3.57
2018-06-04T13:43:00.853Z,3.37
2018-06-04T13:45:29.354Z,2.50
2018-06-04T13:47:57.929Z,3.53
2018-06-04T13:50:26.494Z,2.70
2018-06-04T13:52:55.003Z,2.70
2018-06-04T13:55:23.517Z,3.03
2018-06-04T13:57:52.016Z,2.50
2018-06-04T14:00:20.509Z,2.97
2018-06-04T14:02:49.048Z,2.90
2018-06-04T14:05:17.589Z,3.03
2018-06-04T14:07:46.080Z,3.00
2018-06-04T14:10:14.604Z,3.17
2018-06-04T14:12:43.213Z,3.07
2018-06-04T14:15:11.710Z,3.07
2018-06-04T14:17:40.216Z,2.80
2018-06-04T14:20:08.729Z,3.10
2018-06-04T14:22:37.209Z,3.20
2018-06-04T14:25:06.037Z,2.87
2018-06-04T14:27:34.733Z,3.07
2018-06-04T14:30:03.255Z,3.10
2018-06-04T14:32:31.781Z,2.90
2018-06-04T14:35:00.280Z,2.50
2018-06-04T14:37:29.284Z,3.20
2018-06-04T14:39:57.906Z,2.63
2018-06-04T14:42:26.441Z,2.90
2018-06-04T14:44:55.012Z,2.90
2018-06-04T14:47:23.538Z,3.33
2018-06-04T14:49:52.094Z,3.03
2018-06-04T14:52:20.835Z,3.13
2018-06-04T14:54:49.353Z,3.17
2018-06-04T14:57:17.882Z,2.97
2018-06-04T14:59:46.387Z,2.73
2018-06-04T15:02:14.886Z,3.27
2018-06-04T15:04:43.385Z,2.63
2018-06-04T15:07:11.885Z,3.13
2018-06-04T15:09:40.489Z,3.33
2018-06-04T15:12:09.077Z,3.23
2018-06-04T15:14:37.583Z,3.10
2018-06-04T15:17:06.138Z,3.13
2018-06-04T15:19:34.625Z,3.10
2018-06-04T15:22:03.197Z,2.77
2018-06-04T15:24:31.724Z,3.40
2018-06-04T15:27:00.377Z,3.00
2018-06-04T15:29:28.905Z,3.40
2018-06-04T15:31:57.422Z,3.07
2018-06-04T15:34:25.911Z,3.47
2018-06-04T15:36:54.474Z,3.50
2018-06-04T15:39:23.623Z,3.07
2018-06-04T15:41:52.203Z,3.87
2018-06-04T15:44:20.843Z,3.50
2018-06-04T15:46:49.406Z,3.40
2018-06-04T15:49:17.894Z,3.20
2018-06-04T15:51:46.376Z,3.43
2018-06-04T15:54:14.879Z,4.07
2018-06-04T15:56:43.650Z,4.13
2018-06-04T15:59:12.267Z,4.90
2018-06-04T16:01:40.760Z,3.90
2018-06-04T16:04:09.261Z,4.30
2018-06-04T16:06:37.782Z,4.00
2018-06-04T16:09:07.320Z,4.07
2018-06-04T16:11:35.820Z,4.77
2018-06-04T16:14:04.390Z,4.17
2018-06-04T16:16:32.924Z,4.63
2018-06-04T16:19:01.427Z,4.73
2018-06-04T16:21:30.109Z,4.37
2018-06-04T16:23:58.661Z,4.27
2018-06-04T16:26:27.160Z,4.90
2018-06-04T16:28:55.608Z,4.70
2018-06-04T16:31:24.101Z,3.53
2018-06-04T16:33:52.639Z,3.90
2018-06-04T16:36:21.144Z,4.30
2018-06-04T16:38:49.633Z,4.00
2018-06-04T16:41:18.130Z,4.40
2018-06-04T16:43:46.645Z,3.77
2018-06-04T16:46:15.865Z,3.83
2018-06-04T16:48:44.390Z,4.10
2018-06-04T16:51:13.028Z,3.30
2018-06-04T16:53:41.545Z,3.10
2018-06-04T16:56:10.060Z,3.40
2018-06-04T16:58:38.596Z,3.70
2018-06-04T17:01:07.165Z,4.10
2018-06-04T17:03:35.694Z,4.20
2018-06-04T17:06:04.282Z,4.37
2018-06-04T17:08:32.955Z,4.33
2018-06-04T17:11:01.486Z,4.80
2018-06-04T17:13:29.992Z,5.10
2018-06-04T17:15:59.252Z,4.70
2018-06-04T17:18:28.625Z,4.17
2018-06-04T17:20:57.124Z,4.37
2018-06-04T17:23:25.632Z,5.03
2018-06-04T17:25:54.141Z,5.00
2018-06-04T17:28:22.628Z,4.77
2018-06-04T17:30:51.476Z,4.50
2018-06-04T17:33:20.691Z,5.30
2018-06-04T17:35:49.189Z,4.63
2018-06-04T17:38:17.685Z,5.03
2018-06-04T17:40:46.178Z,4.70
2018-06-04T17:43:14.692Z,4.70
2018-06-04T17:45:43.223Z,4.63
2018-06-04T17:48:11.722Z,5.07
2018-06-04T17:50:40.928Z,4.57
2018-06-04T17:53:10.180Z,5.17
2018-06-04T17:55:39.413Z,5.77
2018-06-04T17:58:08.408Z,4.90
2018-06-04T18:00:37.440Z,4.10
2018-06-04T18:03:06.484Z,4.37
2018-06-04T18:05:35.012Z,4.37
2018-06-04T18:08:03.536Z,3.90
2018-06-04T18:10:32.052Z,4.23
2018-06-04T18:13:00.536Z,3.83
2018-06-04T18:15:28.988Z,4.00
2018-06-04T18:17:57.514Z,3.50
2018-06-04T18:20:26.041Z,4.00
2018-06-04T18:22:55.004Z,5.27
2018-06-04T18:25:23.600Z,4.40
2018-06-04T18:27:52.134Z,4.50
2018-06-04T18:30:20.645Z,4.77
2018-06-04T18:32:49.176Z,5.17
2018-06-04T18:35:17.721Z,4.60
2018-06-04T18:37:46.237Z,4.87
2018-06-04T18:40:14.728Z,5.63
2018-06-04T18:42:43.227Z,5.30
2018-06-04T18:45:11.719Z,7.43
2018-06-04T18:47:40.281Z,4.87
2018-06-04T18:50:08.786Z,5.97
2018-06-04T18:52:37.304Z,6.37
2018-06-04T18:55:05.872Z,6.10
2018-06-04T18:57:34.411Z,4.77
2018-06-04T19:00:02.928Z,4.47
2018-06-04T19:02:31.458Z,4.20
2018-06-04T19:04:59.949Z,5.63
2018-06-04T19:07:28.452Z,4.73
2018-06-04T19:09:57.080Z,4.80
2018-06-04T19:12:25.642Z,6.00
2018-06-04T19:14:54.400Z,4.13
2018-06-04T19:17:23.058Z,4.80
2018-06-04T19:19:51.649Z,4.90
2018-06-04T19:22:20.184Z,4.57
2018-06-04T19:24:48.729Z,4.27
2018-06-04T19:27:17.334Z,4.30
2018-06-04T19:29:46.020Z,4.00
2018-06-04T19:32:14.492Z,4.00
2018-06-04T19:34:43.089Z,3.97
2018-06-04T19:37:11.642Z,5.00
2018-06-04T19:39:40.261Z,4.73
2018-06-04T19:42:08.829Z,4.03
2018-06-04T19:44:37.306Z,4.60
2018-06-04T19:47:05.832Z,4.83
2018-06-04T19:49:34.320Z,3.87
2018-06-04T19:52:02.793Z,4.50
2018-06-04T19:54:31.241Z,4.83
2018-06-04T19:56:59.705Z,5.17
2018-06-04T19:59:28.399Z,4.70
2018-06-04T20:01:57.049Z,4.37
2018-06-04T20:04:25.530Z,3.93
2018-06-04T20:06:53.971Z,3.80
2018-06-04T20:09:22.471Z,4.00
2018-06-04T20:11:51.040Z,4.10
2018-06-04T20:14:19.491Z,3.87
2018-06-04T20:16:47.988Z,4.63
2018-06-04T20:19:16.420Z,4.10
2018-06-04T20:21:44.890Z,3.50
2018-06-04T20:24:13.342Z,3.57
2018-06-04T20:26:41.805Z,3.07
2018-06-04T20:29:10.266Z,3.30
2018-06-04T20:31:38.757Z,3.70
2018-06-04T20:34:07.249Z,4.03
2018-06-04T20:36:35.716Z,3.20
2018-06-04T20:39:04.404Z,3.00
2018-06-04T20:41:32.872Z,3.27
2018-06-04T20:44:01.469Z,3.63
2018-06-04T20:46:29.995Z,3.50
2018-06-04T20:48:58.433Z,3.50
2018-06-04T20:51:26.977Z,3.13
2018-06-04T20:53:55.433Z,2.77
2018-06-04T20:56:23.953Z,2.67
2018-06-04T20:58:52.425Z,2.90
2018-06-04T21:01:20.976Z,2.93
2018-06-04T21:03:49.488Z,3.37
2018-06-04T21:06:17.924Z,2.90
2018-06-04T21:08:46.491Z,3.30
2018-06-04T21:11:14.944Z,3.17
2018-06-04T21:13:43.669Z,3.00
2018-06-04T21:16:12.160Z,3.50
2018-06-04T21:18:40.608Z,3.30
2018-06-04T21:21:09.060Z,3.00
2018-06-04T21:23:37.532Z,3.27
2018-06-04T21:26:06.017Z,3.40
2018-06-04T21:28:34.461Z,3.87
2018-06-04T21:31:02.914Z,4.30
2018-06-04T21:33:31.421Z,4.20
2018-06-04T21:35:59.908Z,4.23
2018-06-04T21:38:28.560Z,3.80
2018-06-04T21:40:57.005Z,3.80
2018-06-04T21:43:25.512Z,3.80
2018-06-04T21:45:53.961Z,3.33
2018-06-04T21:48:22.418Z,3.43
2018-06-04T21:50:50.861Z,3.40
2018-06-04T21:53:19.300Z,3.03
2018-06-04T21:55:47.757Z,3.73
2018-06-04T21:58:16.208Z,3.43
2018-06-04T22:00:44.714Z,3.00
2018-06-04T22:03:13.158Z,3.10
2018-06-04T22:05:41.597Z,3.30
2018-06-04T22:08:10.138Z,2.97
2018-06-04T22:10:38.677Z,3.07
2018-06-04T22:13:07.188Z,2.83
2018-06-04T22:15:35.681Z,3.03
2018-06-04T22:18:04.140Z,4.23
2018-06-04T22:20:32.584Z,3.40
2018-06-04T22:23:01.109Z,4.93
2018-06-04T22:25:29.568Z,2.40
2018-06-04T22:27:58.070Z,2.60
2018-06-04T22:30:26.560Z,3.10
2018-06-04T22:32:55.066Z,3.23
2018-06-04T22:35:23.514Z,2.40
2018-06-04T22:37:52.005Z,2.70
2018-06-04T22:40:20.561Z,3.30
2018-06-04T22:42:49.058Z,2.70
2018-06-04T22:45:17.621Z,2.90
2018-06-04T22:47:46.127Z,2.13
2018-06-04T22:50:14.625Z,2.70
2018-06-04T22:52:43.118Z,2.30
2018-06-04T22:55:11.564Z,2.17
2018-06-04T22:57:40.061Z,4.33
2018-06-04T23:00:08.523Z,2.63
2018-06-04T23:02:36.942Z,2.60
2018-06-04T23:05:05.525Z,2.60
2018-06-04T23:07:34.052Z,2.40
2018-06-04T23:10:02.583Z,2.57
2018-06-04T23:12:31.128Z,2.20
2018-06-04T23:14:59.636Z,2.20
2018-06-04T23:17:28.253Z,2.77
2018-06-04T23:19:56.760Z,2.90
2018-06-04T23:22:25.257Z,2.37
2018-06-04T23:24:53.817Z,2.63
2018-06-04T23:27:22.327Z,2.53
2018-06-04T23:29:50.814Z,2.60
2018-06-04T23:32:19.302Z,2.60
2018-06-04T23:34:47.821Z,2.93
2018-06-04T23:37:16.321Z,2.80
2018-06-04T23:39:44.803Z,2.90
2018-06-04T23:42:13.310Z,3.10
2018-06-04T23:44:42.421Z,2.93
2018-06-04T23:47:11.039Z,2.97
2018-06-04T23:49:39.512Z,2.93
2018-06-04T23:52:08.019Z,3.13
2018-06-04T23:54:36.513Z,3.00
2018-06-04T23:57:05.012Z,3.43
2018-06-04T23:59:33.526Z,3.20
